createdAt,value
2023-04-28T00:01:56.328Z,22.73
2023-04-28T00:04:23.773Z,27.33
2023-04-28T00:06:50.848Z,21.52
2023-04-28T00:09:17.624Z,31.27
2023-04-28T00:11:47.701Z,25.23
2023-04-28T00:14:15.257Z,19.77
2023-04-28T00:16:42.328Z,23.88
2023-04-28T00:19:09.477Z,22.23
2023-04-28T00:21:36.180Z,23.67
2023-04-28T00:24:03.168Z,27.20
2023-04-28T00:26:29.851Z,23.23
2023-04-28T00:28:56.530Z,23.48
2023-04-28T00:31:23.330Z,19.98
2023-04-28T00:33:50.064Z,26.85
2023-04-28T00:36:17.349Z,24.33
2023-04-28T00:38:44.093Z,21.20
2023-04-28T00:41:11.563Z,25.33
2023-04-28T00:43:51.323Z,21.63
2023-04-28T00:46:27.168Z,18.65
2023-04-28T00:48:54.343Z,29.35
2023-04-28T00:51:22.063Z,17.55
2023-04-28T00:53:48.820Z,21.58
2023-04-28T00:56:16.132Z,20.20
2023-04-28T00:58:43.284Z,20.15
2023-04-28T01:01:11.105Z,21.25
2023-04-28T01:03:39.926Z,25.98
2023-04-28T01:06:09.043Z,20.20
2023-04-28T01:08:38.566Z,23.63
2023-04-28T01:11:06.034Z,20.90
2023-04-28T01:13:32.872Z,24.30
2023-04-28T01:15:59.730Z,19.77
2023-04-28T01:18:27.808Z,21.90
2023-04-28T01:20:54.519Z,18.40
2023-04-28T01:23:21.235Z,22.17
2023-04-28T01:25:48.182Z,21.35
2023-04-28T01:28:14.849Z,22.50
2023-04-28T01:30:43.315Z,37.65
2023-04-28T01:33:11.428Z,24.02
2023-04-28T01:35:38.456Z,21.60
2023-04-28T01:38:05.149Z,23.75
2023-04-28T01:40:32.187Z,24.38
2023-04-28T01:43:00.238Z,24.88
2023-04-28T01:45:27.015Z,22.98
2023-04-28T01:47:54.119Z,25.45
2023-04-28T01:50:21.410Z,22.98
2023-04-28T01:52:48.195Z,20.15
2023-04-28T01:55:15.287Z,20.48
2023-04-28T01:57:41.981Z,25.40
2023-04-28T02:00:09.778Z,25.08
2023-04-28T02:02:37.100Z,27.80
2023-04-28T02:05:05.178Z,19.25
2023-04-28T02:07:32.284Z,24.90
2023-04-28T02:09:59.974Z,25.00
2023-04-28T02:12:27.030Z,21.08
2023-04-28T02:14:53.768Z,24.13
2023-04-28T02:17:20.920Z,26.45
2023-04-28T02:19:55.103Z,19.88
2023-04-28T02:22:21.787Z,24.05
2023-04-28T02:24:48.874Z,24.20
2023-04-28T02:27:15.951Z,27.20
2023-04-28T02:29:42.672Z,22.17
2023-04-28T02:32:09.879Z,20.60
2023-04-28T02:34:37.999Z,25.55
2023-04-28T02:37:05.140Z,23.38
2023-04-28T02:39:33.087Z,17.17
2023-04-28T02:41:59.828Z,20.10
2023-04-28T02:44:27.365Z,21.05
2023-04-28T02:46:55.263Z,22.95
2023-04-28T02:49:22.240Z,20.98
2023-04-28T02:51:48.945Z,22.73
2023-04-28T02:54:27.217Z,29.65
2023-04-28T02:56:58.113Z,20.73
2023-04-28T02:59:25.071Z,20.45
2023-04-28T03:01:52.203Z,22.52
2023-04-28T03:04:19.505Z,21.65
2023-04-28T03:06:47.996Z,23.25
2023-04-28T03:09:18.108Z,27.17
2023-04-28T03:11:44.836Z,21.05
2023-04-28T03:14:12.135Z,25.85
2023-04-28T03:16:41.444Z,22.13
2023-04-28T03:19:08.569Z,19.85
2023-04-28T03:21:40.058Z,26.05
2023-04-28T03:24:07.440Z,22.40
2023-04-28T03:26:36.304Z,26.48
2023-04-28T03:29:03.275Z,22.13
2023-04-28T03:31:29.974Z,31.98
2023-04-28T03:33:56.751Z,23.40
2023-04-28T03:36:25.040Z,25.23
2023-04-28T03:38:52.515Z,26.40
2023-04-28T03:41:19.758Z,27.95
2023-04-28T03:43:46.808Z,30.98
2023-04-28T03:46:13.535Z,29.83
2023-04-28T03:48:40.622Z,25.30
2023-04-28T03:51:09.378Z,34.75
2023-04-28T03:53:36.149Z,35.70
2023-04-28T03:56:04.102Z,30.60
2023-04-28T03:58:31.936Z,36.33
2023-04-28T04:01:03.183Z,35.13
2023-04-28T04:03:30.513Z,27.30
2023-04-28T04:05:59.141Z,35.85
2023-04-28T04:08:25.911Z,33.35
2023-04-28T04:10:53.097Z,29.50
2023-04-28T04:13:20.080Z,29.73
2023-04-28T04:15:47.278Z,26.90
2023-04-28T04:18:15.565Z,31.88
2023-04-28T04:20:49.633Z,28.00
2023-04-28T04:23:17.133Z,29.08
2023-04-28T04:25:45.381Z,30.65
2023-04-28T04:28:12.096Z,28.35
2023-04-28T04:30:40.372Z,27.50
2023-04-28T04:33:08.917Z,30.75
2023-04-28T04:35:36.096Z,29.60
2023-04-28T04:38:03.468Z,35.85
2023-04-28T04:40:30.190Z,30.10
2023-04-28T04:42:58.420Z,28.30
2023-04-28T04:45:26.305Z,33.35
2023-04-28T04:47:56.040Z,34.25
2023-04-28T04:50:25.668Z,24.00
2023-04-28T04:52:55.207Z,32.35
2023-04-28T04:55:23.145Z,24.30
2023-04-28T04:57:50.264Z,28.08
2023-04-28T05:00:17.535Z,26.00
2023-04-28T05:02:44.337Z,31.60
2023-04-28T05:05:21.277Z,24.92
2023-04-28T05:07:50.921Z,29.70
2023-04-28T05:10:18.081Z,29.27
2023-04-28T05:12:47.510Z,26.13
2023-04-28T05:15:16.831Z,24.05
2023-04-28T05:17:44.180Z,26.40
2023-04-28T05:20:13.568Z,29.38
2023-04-28T05:22:41.331Z,27.92
2023-04-28T05:25:08.564Z,25.33
2023-04-28T05:27:37.853Z,29.08
2023-04-28T05:30:05.831Z,27.08
2023-04-28T05:32:33.720Z,24.05
2023-04-28T05:35:00.751Z,22.73
2023-04-28T05:37:27.992Z,29.42
2023-04-28T05:39:56.104Z,30.52
2023-04-28T05:42:25.873Z,29.33
2023-04-28T05:44:52.553Z,23.90
2023-04-28T05:47:19.964Z,26.45
2023-04-28T05:49:46.699Z,28.80
2023-04-28T05:52:21.223Z,24.75
2023-04-28T05:54:48.898Z,19.15
2023-04-28T05:57:16.143Z,23.98
2023-04-28T05:59:43.678Z,27.13
2023-04-28T06:02:10.749Z,28.58
2023-04-28T06:04:39.252Z,40.25
2023-04-28T06:07:07.963Z,16.55
2023-04-28T06:09:34.749Z,20.90
2023-04-28T06:12:01.766Z,18.42
2023-04-28T06:14:28.441Z,21.45
2023-04-28T06:16:55.258Z,22.50
2023-04-28T06:19:22.020Z,18.08
2023-04-28T06:21:51.950Z,18.25
2023-04-28T06:24:19.778Z,26.85
2023-04-28T06:26:46.753Z,19.50
2023-04-28T06:29:13.880Z,19.20
2023-04-28T06:31:40.866Z,26.08
2023-04-28T06:34:11.348Z,19.30
2023-04-28T06:36:38.496Z,20.65
2023-04-28T06:39:05.706Z,23.10
2023-04-28T06:41:32.467Z,24.27
2023-04-28T06:43:59.130Z,25.92
2023-04-28T06:46:25.943Z,22.45
2023-04-28T06:48:55.386Z,22.17
2023-04-28T06:51:22.087Z,16.70
2023-04-28T06:53:51.789Z,14.63
2023-04-28T06:56:18.721Z,16.63
2023-04-28T06:58:45.809Z,18.83
2023-04-28T07:01:12.505Z,19.38
2023-04-28T07:03:39.744Z,23.67
2023-04-28T07:06:06.979Z,19.60
2023-04-28T07:08:34.733Z,19.83
2023-04-28T07:11:04.708Z,18.58
2023-04-28T07:13:32.700Z,19.88
2023-04-28T07:15:59.689Z,20.23
2023-04-28T07:18:26.501Z,18.47
2023-04-28T07:20:53.225Z,16.03
2023-04-28T07:23:20.376Z,21.53
2023-04-28T07:25:49.118Z,17.23
2023-04-28T07:28:16.192Z,16.03
2023-04-28T07:30:45.240Z,21.10
2023-04-28T07:33:13.368Z,17.40
2023-04-28T07:35:40.858Z,15.83
2023-04-28T07:38:07.828Z,24.60
2023-04-28T07:40:35.343Z,21.77
2023-04-28T07:43:02.877Z,14.33
2023-04-28T07:45:29.948Z,18.67
2023-04-28T07:47:59.152Z,19.70
2023-04-28T07:50:25.843Z,15.53
2023-04-28T07:52:52.920Z,25.73
2023-04-28T07:55:20.659Z,18.73
2023-04-28T07:57:48.336Z,13.80
2023-04-28T08:00:15.493Z,13.50
2023-04-28T08:02:42.701Z,14.30
2023-04-28T08:05:10.285Z,12.17
2023-04-28T08:07:39.174Z,12.97
2023-04-28T08:10:06.434Z,14.53
2023-04-28T08:12:33.580Z,9.27
2023-04-28T08:15:01.989Z,10.50
2023-04-28T08:17:29.079Z,9.73
2023-04-28T08:19:56.863Z,9.23
2023-04-28T08:22:23.577Z,8.57
2023-04-28T08:24:50.899Z,9.17
2023-04-28T08:27:18.781Z,8.20
2023-04-28T08:29:45.510Z,11.10
2023-04-28T08:32:13.305Z,8.33
2023-04-28T08:34:40.447Z,12.30
2023-04-28T08:37:09.047Z,10.07
2023-04-28T08:39:35.764Z,8.80
2023-04-28T08:42:10.591Z,8.10
2023-04-28T08:44:40.625Z,9.70
2023-04-28T08:47:14.833Z,7.57
2023-04-28T08:49:41.861Z,9.23
2023-04-28T08:52:17.172Z,8.33
2023-04-28T08:54:46.068Z,11.27
2023-04-28T08:57:13.499Z,9.23
2023-04-28T08:59:42.294Z,8.77
2023-04-28T09:02:09.880Z,6.53
2023-04-28T09:04:37.542Z,6.50
2023-04-28T09:07:11.626Z,8.03
2023-04-28T09:09:40.896Z,10.70
2023-04-28T09:12:08.093Z,8.37
2023-04-28T09:14:36.484Z,8.10
2023-04-28T09:17:09.386Z,10.60
2023-04-28T09:19:37.725Z,12.33
2023-04-28T09:22:24.009Z,11.67
2023-04-28T09:24:53.226Z,8.90
2023-04-28T09:27:29.877Z,8.07
2023-04-28T09:29:57.068Z,9.00
2023-04-28T09:32:24.976Z,8.40
2023-04-28T09:34:56.765Z,9.73
2023-04-28T09:37:25.636Z,9.10
2023-04-28T09:39:54.212Z,7.77
2023-04-28T09:42:37.769Z,8.63
2023-04-28T09:45:06.748Z,9.33
2023-04-28T09:47:36.458Z,10.67
2023-04-28T09:50:09.666Z,9.63
2023-04-28T09:52:39.979Z,10.97
2023-04-28T09:55:09.179Z,13.87
2023-04-28T09:57:38.061Z,9.47
2023-04-28T10:00:07.171Z,9.37
2023-04-28T10:05:09.823Z,6.57
2023-04-28T10:07:39.532Z,9.50
2023-04-28T10:10:08.624Z,11.10
2023-04-28T10:12:39.072Z,8.50
2023-04-28T10:15:12.338Z,13.77
2023-04-28T10:17:39.258Z,8.80
2023-04-28T10:20:07.585Z,6.77
2023-04-28T10:23:25.869Z,6.40
2023-04-28T10:25:57.328Z,6.23
2023-04-28T10:28:24.894Z,8.30
2023-04-28T10:31:25.021Z,9.60
2023-04-28T10:33:55.680Z,6.57
2023-04-28T10:36:53.106Z,5.73
2023-04-28T10:39:19.965Z,5.07
2023-04-28T10:41:50.673Z,6.50
2023-04-28T10:44:33.080Z,12.37
2023-04-28T10:47:06.245Z,5.47
2023-04-28T10:49:55.005Z,7.10
2023-04-28T10:52:35.161Z,5.37
2023-04-28T10:55:27.327Z,17.27
2023-04-28T10:58:17.559Z,7.73
2023-04-28T11:00:48.345Z,6.60
2023-04-28T11:03:46.794Z,7.30
2023-04-28T11:06:36.552Z,9.20
2023-04-28T11:09:25.554Z,7.60
2023-04-28T11:12:01.589Z,8.83
2023-04-28T11:14:29.282Z,5.90
2023-04-28T11:17:04.819Z,6.30
2023-04-28T11:19:37.995Z,5.70
2023-04-28T11:22:15.594Z,13.90
2023-04-28T11:25:02.528Z,6.33
2023-04-28T11:27:34.366Z,6.80
2023-04-28T11:30:06.343Z,5.17
2023-04-28T11:32:35.431Z,5.30
2023-04-28T11:35:04.897Z,5.67
2023-04-28T11:37:32.138Z,6.07
2023-04-28T11:39:58.839Z,7.17
2023-04-28T11:42:28.052Z,6.53
2023-04-28T11:44:55.809Z,10.53
2023-04-28T11:47:30.526Z,4.93
2023-04-28T11:49:58.128Z,5.47
2023-04-28T11:52:26.049Z,5.30
2023-04-28T11:55:03.527Z,8.37
2023-04-28T11:57:30.219Z,9.93
2023-04-28T12:00:22.532Z,5.63
2023-04-28T12:02:49.782Z,7.73
2023-04-28T12:05:17.211Z,5.07
2023-04-28T12:07:45.362Z,10.27
2023-04-28T12:10:20.153Z,6.47
2023-04-28T12:15:18.852Z,4.43
2023-04-28T12:17:47.291Z,4.20
2023-04-28T12:20:35.389Z,5.37
2023-04-28T12:23:02.831Z,3.17
2023-04-28T12:25:30.512Z,3.30
2023-04-28T12:28:07.746Z,3.70
2023-04-28T12:30:42.844Z,5.07
2023-04-28T12:33:24.197Z,3.83
2023-04-28T12:35:50.945Z,5.23
2023-04-28T12:38:18.432Z,7.53
2023-04-28T12:40:45.122Z,5.07
2023-04-28T12:43:12.192Z,4.67
2023-04-28T12:45:39.278Z,3.50
2023-04-28T12:48:06.865Z,3.50
2023-04-28T12:50:33.837Z,3.00
2023-04-28T12:53:01.252Z,3.47
2023-04-28T12:55:30.796Z,3.73
2023-04-28T12:57:57.583Z,6.13
2023-04-28T13:00:25.788Z,5.83
2023-04-28T13:02:56.616Z,5.17
2023-04-28T13:05:23.847Z,4.87
2023-04-28T13:07:50.957Z,6.50
2023-04-28T13:10:21.760Z,7.57
2023-04-28T13:12:48.739Z,4.00
2023-04-28T13:15:16.878Z,4.60
2023-04-28T13:17:48.395Z,5.93
2023-04-28T13:20:20.766Z,3.50
2023-04-28T13:22:47.667Z,7.77
2023-04-28T13:25:15.937Z,4.40
2023-04-28T13:27:43.487Z,6.83
2023-04-28T13:30:12.189Z,4.03
2023-04-28T13:32:40.124Z,6.93
2023-04-28T13:35:08.887Z,10.13
2023-04-28T13:37:37.991Z,7.40
2023-04-28T13:40:06.919Z,5.17
2023-04-28T13:42:34.490Z,6.00
2023-04-28T13:45:01.320Z,4.67
2023-04-28T13:47:29.791Z,9.30
2023-04-28T13:49:56.865Z,3.90
2023-04-28T13:52:24.465Z,6.73
2023-04-28T13:54:51.515Z,3.80
2023-04-28T13:57:18.358Z,3.73
2023-04-28T13:59:45.871Z,3.20
2023-04-28T14:02:14.378Z,2.80
2023-04-28T14:04:48.835Z,9.73
2023-04-28T14:07:16.137Z,5.27
2023-04-28T14:09:46.104Z,4.93
2023-04-28T14:12:18.168Z,7.70
2023-04-28T14:14:47.588Z,3.07
2023-04-28T14:17:16.575Z,3.70
2023-04-28T14:19:44.762Z,3.07
2023-04-28T14:22:11.695Z,2.90
2023-04-28T14:24:38.454Z,4.53
2023-04-28T14:27:05.666Z,3.63
2023-04-28T14:29:32.995Z,3.50
2023-04-28T14:31:59.666Z,4.17
2023-04-28T14:34:26.507Z,3.53
2023-04-28T14:36:53.214Z,4.47
2023-04-28T14:39:20.930Z,7.67
2023-04-28T14:41:47.988Z,6.47
2023-04-28T14:44:17.252Z,3.63
2023-04-28T14:46:44.124Z,4.80
2023-04-28T14:49:11.401Z,3.67
2023-04-28T14:51:38.572Z,3.93
2023-04-28T14:54:05.980Z,3.17
2023-04-28T14:56:33.943Z,5.27
2023-04-28T14:59:01.146Z,5.70
2023-04-28T15:01:28.110Z,6.30
2023-04-28T15:03:55.339Z,3.93
2023-04-28T15:06:22.793Z,5.97
2023-04-28T15:08:49.945Z,3.03
2023-04-28T15:11:20.955Z,4.20
2023-04-28T15:13:48.115Z,2.97
2023-04-28T15:16:14.857Z,3.80
2023-04-28T15:18:42.081Z,3.03
2023-04-28T15:21:09.168Z,5.23
2023-04-28T15:23:36.400Z,5.10
2023-04-28T15:26:04.203Z,5.50
2023-04-28T15:28:31.260Z,4.70
2023-04-28T15:31:00.015Z,3.37
2023-04-28T15:33:26.813Z,3.83
2023-04-28T15:35:53.608Z,4.07
2023-04-28T15:38:20.337Z,4.33
2023-04-28T15:40:47.179Z,4.97
2023-04-28T15:43:13.872Z,3.13
2023-04-28T15:45:41.094Z,7.70
2023-04-28T15:48:09.178Z,3.67
2023-04-28T15:50:37.482Z,8.70
2023-04-28T15:53:07.280Z,4.83
2023-04-28T15:55:34.682Z,3.73
2023-04-28T15:58:02.104Z,3.37
2023-04-28T16:00:29.365Z,5.10
2023-04-28T16:02:57.216Z,5.40
2023-04-28T16:05:23.985Z,6.63
2023-04-28T16:07:52.639Z,2.70
2023-04-28T16:10:19.347Z,4.27
2023-04-28T16:12:48.954Z,3.43
2023-04-28T16:15:19.034Z,10.30
2023-04-28T16:17:46.265Z,4.80
2023-04-28T16:20:13.306Z,5.03
2023-04-28T16:22:41.677Z,9.17
2023-04-28T16:25:09.678Z,8.00
2023-04-28T16:27:37.116Z,3.83
2023-04-28T16:30:08.106Z,4.50
2023-04-28T16:32:38.284Z,4.37
2023-04-28T16:35:11.252Z,5.30
2023-04-28T16:37:44.345Z,5.73
2023-04-28T16:40:12.292Z,6.93
2023-04-28T16:42:39.917Z,4.00
2023-04-28T16:45:09.537Z,4.17
2023-04-28T16:47:36.287Z,4.30
2023-04-28T16:50:03.446Z,4.10
2023-04-28T16:52:30.429Z,3.00
2023-04-28T16:54:57.223Z,11.23
2023-04-28T16:57:24.328Z,4.90
2023-04-28T16:59:52.020Z,6.27
2023-04-28T17:02:19.239Z,5.80
2023-04-28T17:04:46.834Z,7.23
2023-04-28T17:07:14.105Z,10.10
2023-04-28T17:09:40.966Z,4.33
2023-04-28T17:12:07.790Z,9.83
2023-04-28T17:14:38.481Z,4.10
2023-04-28T17:17:06.967Z,10.20
2023-04-28T17:19:33.788Z,3.67
2023-04-28T17:22:00.788Z,9.77
2023-04-28T17:24:30.201Z,3.37
2023-04-28T17:26:56.897Z,3.33
2023-04-28T17:29:24.340Z,7.40
2023-04-28T17:31:53.088Z,4.47
2023-04-28T17:34:20.180Z,4.70
2023-04-28T17:36:47.476Z,3.57
2023-04-28T17:39:16.942Z,5.43
2023-04-28T17:41:45.421Z,5.30
2023-04-28T17:44:12.182Z,4.83
2023-04-28T17:46:39.168Z,4.40
2023-04-28T17:49:06.328Z,4.80
2023-04-28T17:51:33.449Z,5.50
2023-04-28T17:54:00.605Z,4.30
2023-04-28T17:56:27.882Z,6.10
2023-04-28T17:58:55.585Z,4.10
2023-04-28T18:01:22.728Z,4.50
2023-04-28T18:03:49.522Z,6.70
2023-04-28T18:06:17.399Z,6.60
2023-04-28T18:08:44.152Z,6.87
2023-04-28T18:11:11.305Z,4.80
2023-04-28T18:13:38.246Z,10.80
2023-04-28T18:16:05.532Z,4.87
2023-04-28T18:18:35.778Z,5.27
2023-04-28T18:21:03.084Z,11.93
2023-04-28T18:23:30.958Z,6.93
2023-04-28T18:25:57.727Z,12.60
2023-04-28T18:28:25.010Z,6.30
2023-04-28T18:30:51.701Z,12.60
2023-04-28T18:33:21.439Z,4.60
2023-04-28T18:35:57.951Z,5.23
2023-04-28T18:38:25.124Z,7.47
2023-04-28T18:40:51.902Z,9.57
2023-04-28T18:43:18.668Z,7.27
2023-04-28T18:45:46.097Z,9.53
2023-04-28T18:48:12.922Z,7.13
2023-04-28T18:50:40.594Z,5.80
2023-04-28T18:53:09.318Z,6.70
2023-04-28T18:55:36.939Z,5.13
2023-04-28T18:58:04.063Z,6.17
2023-04-28T19:00:32.634Z,7.57
2023-04-28T19:03:02.831Z,6.30
2023-04-28T19:05:31.300Z,5.40
2023-04-28T19:08:00.066Z,8.97
2023-04-28T19:10:27.094Z,8.70
2023-04-28T19:12:53.842Z,6.28
2023-04-28T19:15:22.197Z,5.97
2023-04-28T19:17:49.607Z,5.60
2023-04-28T19:20:16.434Z,4.83
2023-04-28T19:22:47.338Z,4.73
2023-04-28T19:25:15.303Z,4.33
2023-04-28T19:27:46.069Z,6.10
2023-04-28T19:30:14.483Z,6.73
2023-04-28T19:32:42.108Z,10.03
2023-04-28T19:35:10.324Z,7.20
2023-04-28T19:37:38.867Z,5.20
2023-04-28T19:40:07.637Z,9.38
2023-04-28T19:42:35.227Z,13.02
2023-04-28T19:45:04.409Z,11.23
2023-04-28T19:47:34.368Z,9.57
2023-04-28T19:50:01.680Z,8.90
2023-04-28T19:52:28.549Z,14.73
2023-04-28T19:54:55.952Z,10.57
2023-04-28T19:57:24.714Z,9.10
2023-04-28T19:59:51.897Z,8.35
2023-04-28T20:02:21.677Z,16.17
2023-04-28T20:04:49.922Z,15.38
2023-04-28T20:07:17.796Z,11.63
2023-04-28T20:09:46.063Z,9.70
2023-04-28T20:12:16.164Z,14.00
2023-04-28T20:14:43.682Z,16.45
2023-04-28T20:17:11.645Z,9.88
2023-04-28T20:19:40.066Z,14.02
2023-04-28T20:22:08.595Z,9.50
2023-04-28T20:24:36.981Z,10.90
2023-04-28T20:27:04.217Z,12.65
2023-04-28T20:29:35.075Z,13.55
2023-04-28T20:32:02.723Z,10.02
2023-04-28T20:34:30.720Z,9.00
2023-04-28T20:36:59.478Z,8.80
2023-04-28T20:39:26.379Z,10.10
2023-04-28T20:41:53.490Z,19.35
2023-04-28T20:44:22.698Z,9.02
2023-04-28T20:46:49.435Z,12.07
2023-04-28T20:49:16.122Z,9.57
2023-04-28T20:51:46.776Z,8.85
2023-04-28T20:54:15.189Z,8.30
2023-04-28T20:56:43.267Z,8.85
2023-04-28T20:59:10.492Z,9.15
2023-04-28T21:01:37.322Z,9.57
2023-04-28T21:04:05.711Z,10.10
2023-04-28T21:06:37.467Z,10.55
2023-04-28T21:09:12.554Z,10.25
2023-04-28T21:11:39.221Z,10.50
2023-04-28T21:14:06.323Z,9.10
2023-04-28T21:16:33.143Z,10.10
2023-04-28T21:19:00.997Z,9.00
2023-04-28T21:21:28.221Z,20.33
2023-04-28T21:23:55.890Z,8.10
2023-04-28T21:26:26.479Z,10.43
2023-04-28T21:28:53.189Z,9.80
2023-04-28T21:31:20.035Z,7.38
2023-04-28T21:33:47.264Z,9.90
2023-04-28T21:36:14.292Z,10.40
2023-04-28T21:38:42.554Z,7.20
2023-04-28T21:41:12.771Z,9.30
2023-04-28T21:43:39.682Z,8.80
2023-04-28T21:46:07.953Z,9.05
2023-04-28T21:48:35.460Z,7.93
2023-04-28T21:51:02.964Z,8.93
2023-04-28T21:53:29.698Z,9.50
2023-04-28T21:55:56.721Z,9.15
2023-04-28T21:58:23.848Z,7.07
2023-04-28T22:00:51.862Z,9.00
2023-04-28T22:03:18.805Z,7.70
2023-04-28T22:05:46.306Z,11.15
2023-04-28T22:08:14.228Z,8.20
2023-04-28T22:10:41.692Z,11.02
2023-04-28T22:13:09.058Z,12.32
2023-04-28T22:15:36.173Z,8.68
2023-04-28T22:18:03.003Z,7.07
2023-04-28T22:20:30.404Z,9.60
2023-04-28T22:22:57.681Z,8.05
2023-04-28T22:25:24.786Z,7.72
2023-04-28T22:27:52.151Z,14.85
2023-04-28T22:30:19.324Z,10.65
2023-04-28T22:32:47.253Z,7.45
2023-04-28T22:35:15.076Z,7.72
2023-04-28T22:37:41.793Z,6.97
2023-04-28T22:40:09.612Z,8.82
2023-04-28T22:42:37.953Z,8.35
2023-04-28T22:45:07.121Z,7.65
2023-04-28T22:47:35.182Z,10.38
2023-04-28T22:50:07.881Z,14.23
2023-04-28T22:52:35.855Z,9.10
2023-04-28T22:55:03.085Z,9.85
2023-04-28T22:57:29.768Z,6.90
2023-04-28T22:59:56.507Z,8.50
2023-04-28T23:02:23.992Z,7.85
2023-04-28T23:04:51.188Z,7.97
2023-04-28T23:07:18.451Z,6.45
2023-04-28T23:09:45.599Z,10.35
2023-04-28T23:12:13.026Z,8.55
2023-04-28T23:14:40.012Z,13.20
2023-04-28T23:17:06.763Z,6.93
2023-04-28T23:19:35.621Z,8.50
2023-04-28T23:22:02.408Z,6.28
2023-04-28T23:24:29.580Z,8.32
2023-04-28T23:26:56.725Z,7.78
2023-04-28T23:29:23.933Z,8.48
2023-04-28T23:31:54.954Z,6.75
2023-04-28T23:34:22.869Z,9.45
2023-04-28T23:36:50.023Z,7.07
2023-04-28T23:39:17.044Z,11.82
2023-04-28T23:41:43.813Z,7.38
2023-04-28T23:44:10.954Z,6.72
2023-04-28T23:46:41.500Z,7.38
2023-04-28T23:49:08.777Z,6.65
2023-04-28T23:51:36.376Z,6.75
2023-04-28T23:54:03.757Z,6.05
2023-04-28T23:56:31.590Z,8.55
2023-04-28T23:58:59.367Z,7.53
